Time;durP1;ratioP1;P1;durP2;ratioP2;P2;SDS_P1;SDS_P2;PMS_P1;PMS_P2;Temp;Humidity;BMP_temperature;BMP_pressure;BME280_temperature;BME280_humidity;BME280_pressure;Samples;Min_cycle;Max_cycle;Signal;HPM_P1;HPM_P2
2021/12/20 00:01:17;;;;;;;22.20;14.30;;;;;;;1.77;100.00;99040.45;1745697;80;21053;-82
2021/12/20 00:03:44;;;;;;;21.60;14.45;;;;;;;1.76;100.00;99045.25;1746141;82;21134;-82
2021/12/20 00:06:11;;;;;;;20.12;12.88;;;;;;;1.77;100.00;99044.30;1746387;80;21026;-82
2021/12/20 00:08:38;;;;;;;20.95;13.95;;;;;;;1.80;100.00;99053.94;1745956;82;21022;-82
2021/12/20 00:11:05;;;;;;;21.87;14.10;;;;;;;1.79;100.00;99047.16;1745853;80;21046;-82
2021/12/20 00:13:32;;;;;;;21.35;13.55;;;;;;;1.78;100.00;99055.77;1745667;80;21110;-82
2021/12/20 00:15:59;;;;;;;20.20;12.10;;;;;;;1.79;100.00;99061.27;1745837;80;21891;-83
2021/12/20 00:18:28;;;;;;;19.40;12.65;;;;;;;1.80;100.00;99057.79;1745762;80;21539;-84
2021/12/20 00:20:56;;;;;;;22.42;11.75;;;;;;;1.81;100.00;99058.13;1745881;80;20991;-82
2021/12/20 00:23:23;;;;;;;18.55;10.70;;;;;;;1.78;100.00;99056.22;1745599;81;21714;-83
2021/12/20 00:25:50;;;;;;;18.85;10.60;;;;;;;1.76;100.00;99054.23;1745925;81;21729;-82
2021/12/20 00:28:21;;;;;;;17.02;10.25;;;;;;;1.73;100.00;99062.92;1745803;82;21131;-82
2021/12/20 00:30:49;;;;;;;16.07;10.03;;;;;;;1.70;100.00;99057.53;1730740;82;21344;-86
2021/12/20 00:33:16;;;;;;;16.02;8.90;;;;;;;1.70;100.00;99058.00;1745798;80;21085;-86
2021/12/20 00:35:44;;;;;;;14.07;8.35;;;;;;;1.70;100.00;99058.00;1745835;80;21014;-85
2021/12/20 00:40:57;;;;;;;8.98;6.40;;;;;;;1.66;100.00;99066.80;1745690;80;21245;-86
2021/12/20 00:43:24;;;;;;;10.70;6.72;;;;;;;1.63;100.00;99065.73;1746080;82;21077;-85
2021/12/20 00:45:51;;;;;;;10.93;7.20;;;;;;;1.63;100.00;99067.01;1745639;82;21015;-86
2021/12/20 00:48:19;;;;;;;8.25;5.75;;;;;;;1.64;100.00;99069.47;1745712;82;21062;-84
2021/12/20 00:50:46;;;;;;;8.43;5.08;;;;;;;1.68;100.00;99072.66;1745983;80;21050;-86
2021/12/20 00:53:13;;;;;;;5.65;4.40;;;;;;;1.67;100.00;99076.98;1745493;80;21132;-84
2021/12/20 00:55:41;;;;;;;6.00;4.22;;;;;;;1.66;100.00;99066.80;1729498;82;21050;-83
2021/12/20 00:58:08;;;;;;;4.62;3.58;;;;;;;1.63;100.00;99062.69;1745711;80;21089;-82
2021/12/20 01:00:41;;;;;;;4.10;3.67;;;;;;;1.61;100.00;99068.84;1745476;82;21081;-82
2021/12/20 01:03:09;;;;;;;4.37;3.50;;;;;;;1.58;100.00;99062.16;1745580;80;21019;-83
2021/12/20 01:05:38;;;;;;;3.98;3.55;;;;;;;1.56;100.00;99062.71;1745825;80;21144;-81
2021/12/20 01:08:07;;;;;;;3.42;3.12;;;;;;;1.54;100.00;99067.95;1729412;82;20999;-82
2021/12/20 01:10:40;;;;;;;4.20;3.30;;;;;;;1.53;100.00;99070.14;1745658;81;21895;-82
2021/12/20 01:13:07;;;;;;;3.22;2.92;;;;;;;1.52;100.00;99081.32;1746008;82;21078;-81
2021/12/20 01:15:43;;;;;;;3.87;3.27;;;;;;;1.52;100.00;99081.32;1729764;80;21153;-82
2021/12/20 01:18:08;;;;;;;4.12;3.27;;;;;;;1.50;100.00;99083.16;1743216;80;21169;-82
2021/12/20 01:20:36;;;;;;;3.75;3.42;;;;;;;1.47;100.00;99076.95;1731092;81;21058;-83
2021/12/20 01:23:05;;;;;;;3.27;2.83;;;;;;;1.44;100.00;99080.97;1746023;82;21054;-81
2021/12/20 01:25:34;;;;;;;5.95;2.87;;;;;;;1.41;100.00;99087.56;1745339;80;21583;-82
2021/12/20 01:28:01;;;;;;;5.05;2.75;;;;;;;1.37;100.00;99086.93;1745660;80;21061;-84
2021/12/20 01:30:29;;;;;;;3.55;3.02;;;;;;;1.34;100.00;99076.88;1745632;82;21208;-81
2021/12/20 01:32:57;;;;;;;3.60;2.80;;;;;;;1.32;100.00;99083.83;1745593;80;21011;-82
2021/12/20 01:35:27;;;;;;;3.05;2.80;;;;;;;1.30;100.00;99084.38;1745588;80;21034;-82
2021/12/20 01:37:57;;;;;;;2.92;2.70;;;;;;;1.30;100.00;99095.11;1745769;80;21030;-81
2021/12/20 01:40:24;;;;;;;2.80;2.50;;;;;;;1.30;100.00;99095.11;1729066;81;21013;-81
2021/12/20 01:42:57;;;;;;;2.70;2.50;;;;;;;1.29;100.00;99098.59;1727424;81;21131;-83
2021/12/20 01:45:28;;;;;;;3.12;2.67;;;;;;;1.27;100.00;99102.53;1726774;81;21139;-81
2021/12/20 01:48:07;;;;;;;5.47;2.47;;;;;;;1.26;100.00;99105.55;1727130;81;25773;-82
2021/12/20 01:53:23;;;;;;;3.83;2.30;;;;;;;1.25;100.00;99113.34;1726753;81;21013;-81
2021/12/20 01:55:53;;;;;;;2.77;2.50;;;;;;;1.23;100.00;99110.88;1704387;83;21047;-84
2021/12/20 01:58:22;;;;;;;2.35;2.15;;;;;;;1.21;100.00;99118.27;1703775;81;21263;-82
2021/12/20 02:03:42;;;;;;;3.00;2.60;;;;;;;1.17;100.00;99111.69;1703794;82;21037;-82
2021/12/20 02:06:23;;;;;;;3.90;2.72;;;;;;;1.16;100.00;99117.27;1739783;80;21089;-82
2021/12/20 02:08:48;;;;;;;3.17;2.30;;;;;;;1.16;100.00;99120.30;1744919;80;21085;-83
2021/12/20 02:11:20;;;;;;;3.00;2.50;;;;;;;1.13;100.00;99109.77;1802098;78;21009;-86
2021/12/20 02:13:48;;;;;;;2.33;2.12;;;;;;;1.08;100.00;99117.73;1750810;80;21104;-81
2021/12/20 02:16:15;;;;;;;3.98;2.17;;;;;;;1.04;100.00;99127.80;1767253;79;21010;-81
2021/12/20 02:18:42;;;;;;;2.30;2.10;;;;;;;1.03;100.00;99130.02;1711894;82;21100;-81
2021/12/20 02:21:10;;;;;;;2.62;1.87;;;;;;;1.01;100.00;99131.00;1738266;81;21793;-81
2021/12/20 02:23:38;;;;;;;2.72;2.10;;;;;;;0.99;100.00;99129.00;1715084;82;21047;-80
2021/12/20 02:26:06;;;;;;;2.08;1.87;;;;;;;0.96;100.00;99135.14;1725016;81;21074;-81
2021/12/20 02:28:41;;;;;;;2.12;1.92;;;;;;;0.94;100.00;99137.77;1737712;81;21027;-82
2021/12/20 02:39:16;;;;;;;5.92;3.17;;;;;;;0.81;100.00;99150.11;1725258;82;21465;-81
2021/12/20 02:41:46;;;;;;;4.58;2.98;;;;;;;0.75;100.00;99147.47;1718651;81;21328;-82
2021/12/20 02:44:18;;;;;;;4.20;2.50;;;;;;;0.72;100.00;99152.76;1695977;83;21042;-83
2021/12/20 02:47:02;;;;;;;4.00;2.33;;;;;;;0.69;100.00;99155.48;1708852;82;21861;-81
2021/12/20 02:49:24;;;;;;;3.20;2.40;;;;;;;0.65;100.00;99154.02;1706556;82;21058;-81
2021/12/20 02:51:53;;;;;;;2.52;2.05;;;;;;;0.61;100.00;99164.44;1719027;81;21094;-85
2021/12/20 02:54:22;;;;;;;2.77;1.95;;;;;;;0.58;100.00;99174.88;1738022;81;21540;-82
2021/12/20 02:56:49;;;;;;;3.80;1.92;;;;;;;0.55;100.00;99176.32;1738291;82;21062;-83
2021/12/20 02:59:18;;;;;;;2.27;2.08;;;;;;;0.51;100.00;99179.98;1737989;81;21127;-82
2021/12/20 03:01:51;;;;;;;2.33;2.12;;;;;;;0.45;100.00;99181.58;1725142;82;21804;-83
2021/12/20 03:04:18;;;;;;;2.27;2.08;;;;;;;0.39;100.00;99190.89;1736228;82;21063;-82
2021/12/20 03:06:55;;;;;;;2.47;2.00;;;;;;;0.36;100.00;99191.90;1737219;81;20999;-81
2021/12/20 03:09:31;;;;;;;2.37;2.05;;;;;;;0.33;100.00;99197.64;1736636;81;21614;-86
2021/12/20 03:11:59;;;;;;;4.10;2.08;;;;;;;0.29;100.00;99196.99;1734341;81;21130;-81
2021/12/20 03:14:33;;;;;;;3.87;2.62;;;;;;;0.30;100.00;99200.73;1737793;82;21039;-81
2021/12/20 03:16:59;;;;;;;5.17;2.85;;;;;;;0.33;100.00;99207.89;1742024;81;21041;-81
2021/12/20 03:19:28;;;;;;;4.65;2.83;;;;;;;0.37;100.00;99205.52;1786496;79;21024;-83
2021/12/20 03:21:56;;;;;;;3.17;2.65;;;;;;;0.39;100.00;99202.42;1753693;80;22532;-81
2021/12/20 03:24:26;;;;;;;3.22;2.72;;;;;;;0.40;100.00;99195.11;1751863;80;21021;-85
2021/12/20 03:26:53;;;;;;;3.85;2.90;;;;;;;0.42;100.00;99195.39;1751816;81;20999;-84
2021/12/20 03:29:20;;;;;;;9.13;2.72;;;;;;;0.44;100.00;99194.05;1732320;81;21035;-82
2021/12/20 03:31:48;;;;;;;2.40;2.05;;;;;;;0.42;100.00;99194.11;1751966;81;21017;-83
2021/12/20 03:34:18;;;;;;;3.17;2.02;;;;;;;0.41;100.00;99193.73;1752166;81;21077;-82
2021/12/20 03:36:47;;;;;;;3.62;1.50;;;;;;;0.39;100.00;99196.02;1750364;81;22011;-83
2021/12/20 03:39:15;;;;;;;1.75;1.37;;;;;;;0.38;100.00;99200.77;1732544;81;21026;-82
2021/12/20 03:41:44;;;;;;;2.52;1.70;;;;;;;0.35;100.00;99205.61;1752361;81;21544;-83
2021/12/20 03:44:11;;;;;;;1.47;1.22;;;;;;;0.35;100.00;99206.89;1751887;81;21571;-82
2021/12/20 03:46:38;;;;;;;2.50;1.60;;;;;;;0.37;100.00;99202.52;1752374;81;21496;-81
2021/12/20 03:49:07;;;;;;;1.50;1.40;;;;;;;0.37;100.00;99199.11;1752000;81;21157;-82
2021/12/20 03:51:35;;;;;;;1.37;1.20;;;;;;;0.36;100.00;99197.48;1732984;81;21024;-82
2021/12/20 03:54:03;;;;;;;1.40;1.30;;;;;;;0.35;100.00;99200.48;1751882;81;21016;-83
2021/12/20 03:56:30;;;;;;;2.02;1.60;;;;;;;0.37;100.00;99201.23;1752269;81;21063;-81
2021/12/20 03:58:58;;;;;;;2.30;1.52;;;;;;;0.40;100.00;99198.95;1752105;81;21036;-83
2021/12/20 04:01:25;;;;;;;5.22;1.62;;;;;;;0.42;100.00;99199.23;1769801;81;21738;-81
2021/12/20 04:03:53;;;;;;;4.58;1.98;;;;;;;0.45;100.00;99197.80;1769536;79;21043;-82
2021/12/20 04:06:21;;;;;;;2.50;1.65;;;;;;;0.46;100.00;99208.41;1769496;79;21066;-81
2021/12/20 04:08:48;;;;;;;2.50;1.70;;;;;;;0.46;100.00;99210.97;1784092;79;21046;-82
2021/12/20 04:11:17;;;;;;;2.77;1.55;;;;;;;0.46;100.00;99212.25;1786888;78;21055;-83
2021/12/20 04:13:44;;;;;;;1.80;1.70;;;;;;;0.48;100.00;99210.06;1767325;80;21167;-83
2021/12/20 04:16:11;;;;;;;2.60;2.20;;;;;;;0.52;100.00;99224.34;1767431;80;21076;-82
2021/12/20 04:18:40;;;;;;;8.30;2.40;;;;;;;0.54;100.00;99225.90;1751374;80;21085;-85
2021/12/20 04:21:07;;;;;;;2.30;1.92;;;;;;;0.53;100.00;99226.00;1751432;80;21443;-84
2021/12/20 04:23:35;;;;;;;7.45;2.20;;;;;;;0.52;100.00;99234.12;1751282;80;21585;-84
2021/12/20 04:26:02;;;;;;;5.22;1.98;;;;;;;0.52;100.00;99239.23;1728171;81;21845;-83
2021/12/20 04:28:29;;;;;;;3.27;2.10;;;;;;;0.53;100.00;99240.89;1751267;80;21024;-82
2021/12/20 04:30:57;;;;;;;3.75;2.02;;;;;;;0.54;100.00;99250.23;1751233;80;21028;-83
2021/12/20 04:33:24;;;;;;;2.80;2.00;;;;;;;0.57;100.00;99256.48;1749511;80;21123;-83
2021/12/20 04:35:51;;;;;;;4.20;2.33;;;;;;;0.59;100.00;99261.08;1728308;81;21602;-85
2021/12/20 04:38:18;;;;;;;6.90;2.40;;;;;;;0.63;100.00;99262.55;1750746;80;21847;-84
2021/12/20 04:40:46;;;;;;;2.92;2.35;;;;;;;0.65;100.00;99264.20;1742256;80;21023;-85
2021/12/20 04:43:13;;;;;;;32.90;4.55;;;;;;;0.67;100.00;99264.48;1721597;82;21065;-81
2021/12/20 04:45:40;;;;;;;20.88;3.75;;;;;;;0.86;100.00;99267.30;1721396;82;21069;-82
2021/12/20 04:48:09;;;;;;;24.00;3.77;;;;;;;1.39;100.00;99266.41;1721156;82;21096;-81
2021/12/20 04:50:36;;;;;;;15.32;3.62;;;;;;;1.83;100.00;99270.63;1685249;81;21059;-82
2021/12/20 04:53:05;;;;;;;4.05;3.00;;;;;;;2.12;100.00;99272.34;1736269;80;21125;-82
2021/12/20 04:55:33;;;;;;;6.80;2.72;;;;;;;2.14;100.00;99275.18;1721042;83;22243;-84
2021/12/20 04:58:05;;;;;;;13.62;4.28;;;;;;;1.91;100.00;99281.73;1740526;81;21567;-83
2021/12/20 05:00:35;;;;;;;6.30;3.40;;;;;;;1.66;100.00;99287.05;1750986;81;21022;-82
2021/12/20 05:03:04;;;;;;;11.88;4.05;;;;;;;1.47;100.00;99292.89;1750606;81;21845;-84
2021/12/20 05:05:31;;;;;;;10.35;5.62;;;;;;;1.42;100.00;99289.30;1750379;80;21030;-86
2021/12/20 05:07:58;;;;;;;12.15;4.45;;;;;;;1.45;100.00;99299.40;1737163;81;21125;-84
2021/12/20 05:10:31;;;;;;;7.00;3.58;;;;;;;1.45;100.00;99296.83;1750034;80;21062;-85
2021/12/20 05:13:03;;;;;;;8.08;3.70;;;;;;;1.47;100.00;99298.86;1749059;80;21109;-82
2021/12/20 05:15:31;;;;;;;7.53;3.20;;;;;;;1.49;100.00;99297.48;1749065;80;21159;-83
2021/12/20 05:18:00;;;;;;;5.35;3.27;;;;;;;1.50;100.00;99303.80;1750095;80;20991;-83
2021/12/20 05:20:27;;;;;;;3.35;3.05;;;;;;;1.46;100.00;99301.50;1750707;80;21011;-80
2021/12/20 05:22:57;;;;;;;4.78;3.50;;;;;;;1.43;100.00;99307.63;1730439;81;20997;-81
2021/12/20 05:25:25;;;;;;;4.90;3.30;;;;;;;1.39;100.00;99308.74;1730177;81;21553;-82
2021/12/20 05:27:52;;;;;;;3.92;3.50;;;;;;;1.22;100.00;99310.53;1747312;80;21424;-81
2021/12/20 05:30:19;;;;;;;4.25;3.40;;;;;;;1.03;100.00;99313.76;1751305;80;21085;-82
2021/12/20 05:32:48;;;;;;;3.52;3.22;;;;;;;0.85;100.00;99317.72;1746569;81;21296;-80
2021/12/20 05:35:16;;;;;;;4.47;3.35;;;;;;;0.73;100.00;99320.97;1747188;80;21112;-81
2021/12/20 05:37:44;;;;;;;3.40;3.10;;;;;;;0.62;100.00;99323.66;1712119;82;21377;-81
2021/12/20 05:40:14;;;;;;;6.90;3.75;;;;;;;0.58;100.00;99322.19;1723361;81;21539;-80
2021/12/20 05:42:45;;;;;;;9.75;7.37;;;;;;;0.55;100.00;99324.91;1751232;80;21045;-81
2021/12/20 05:45:13;;;;;;;9.18;5.53;;;;;;;0.51;100.00;99327.71;1738481;81;21054;-81
2021/12/20 05:47:41;;;;;;;9.50;5.08;;;;;;;0.44;100.00;99328.52;1750687;80;21058;-81
2021/12/20 05:50:12;;;;;;;8.10;4.40;;;;;;;0.41;100.00;99326.92;1734359;81;21094;-82
2021/12/20 05:52:39;;;;;;;4.47;4.08;;;;;;;0.40;100.00;99329.57;1763946;80;21955;-81
2021/12/20 05:55:08;;;;;;;4.55;4.15;;;;;;;0.40;100.00;99333.41;1764487;80;21522;-80
2021/12/20 05:57:36;;;;;;;6.35;4.75;;;;;;;0.39;100.00;99330.48;1742470;80;21087;-81
2021/12/20 06:00:09;;;;;;;5.72;4.03;;;;;;;0.41;100.00;99338.91;1764182;80;21040;-80
2021/12/20 06:02:39;;;;;;;5.45;4.92;;;;;;;0.40;100.00;99338.53;1765054;80;21569;-80
2021/12/20 06:05:07;;;;;;;5.78;4.47;;;;;;;0.40;100.00;99341.09;1764390;80;21153;-83
2021/12/20 06:07:38;;;;;;;5.17;4.67;;;;;;;0.38;100.00;99339.06;1764308;80;22380;-80
2021/12/20 06:10:04;;;;;;;6.28;5.03;;;;;;;0.35;100.00;99344.37;1741858;81;21021;-82
2021/12/20 06:12:31;;;;;;;5.70;4.67;;;;;;;0.31;100.00;99348.36;1759297;80;21085;-81
2021/12/20 06:15:00;;;;;;;6.05;4.92;;;;;;;0.32;100.00;99356.88;1749382;79;21060;-83
2021/12/20 06:17:30;;;;;;;4.97;4.47;;;;;;;0.33;100.00;99351.30;1740493;81;21271;-81
2021/12/20 06:19:58;;;;;;;5.92;4.90;;;;;;;0.30;100.00;99354.85;1730031;81;21463;-80
2021/12/20 06:22:25;;;;;;;4.60;4.20;;;;;;;0.29;100.00;99355.29;1744671;79;21052;-82
2021/12/20 06:24:52;;;;;;;6.35;4.75;;;;;;;0.31;100.00;99354.76;1770839;79;21573;-81
2021/12/20 06:27:19;;;;;;;4.75;4.25;;;;;;;0.38;100.00;99360.83;1739037;81;21009;-81
2021/12/20 06:29:45;;;;;;;7.20;5.50;;;;;;;0.44;100.00;99361.81;1752241;80;21127;-81
2021/12/20 06:32:12;;;;;;;5.92;5.10;;;;;;;0.47;100.00;99352.66;1752281;80;21113;-81
2021/12/20 06:34:39;;;;;;;5.70;4.90;;;;;;;0.50;100.00;99357.64;1752413;81;21113;-81
2021/12/20 06:37:06;;;;;;;7.33;5.17;;;;;;;0.55;100.00;99354.36;1752154;80;21007;-81
2021/12/20 06:39:34;;;;;;;8.58;5.90;;;;;;;0.56;100.00;99363.70;1752051;81;21058;-81
2021/12/20 06:42:00;;;;;;;5.70;4.72;;;;;;;0.54;100.00;99364.23;1737999;81;21141;-82
2021/12/20 06:44:27;;;;;;;6.50;5.53;;;;;;;0.54;100.00;99355.27;1750364;80;21030;-81
2021/12/20 06:46:55;;;;;;;6.83;5.70;;;;;;;0.59;100.00;99372.52;1752093;80;21073;-81
2021/12/20 06:49:25;;;;;;;9.70;7.33;;;;;;;0.64;100.00;99374.84;1737987;80;21101;-81
2021/12/20 06:51:55;;;;;;;11.38;7.47;;;;;;;0.68;100.00;99380.16;1736142;81;20986;-81
2021/12/20 06:54:21;;;;;;;8.53;6.70;;;;;;;0.68;100.00;99382.72;1750245;80;21038;-83
2021/12/20 06:56:47;;;;;;;7.53;6.37;;;;;;;0.69;100.00;99377.13;1752260;80;21058;-81
2021/12/20 06:59:14;;;;;;;8.30;6.47;;;;;;;0.72;100.00;99384.66;1752625;80;21042;-81
2021/12/20 07:01:41;;;;;;;7.78;6.72;;;;;;;0.72;100.00;99380.81;1752034;80;21117;-81
2021/12/20 07:04:09;;;;;;;6.75;5.83;;;;;;;0.71;100.00;99380.44;1752457;80;21014;-81
2021/12/20 07:06:35;;;;;;;7.22;6.05;;;;;;;0.72;100.00;99378.25;1752232;80;21135;-81
2021/12/20 07:09:02;;;;;;;7.55;6.37;;;;;;;0.75;100.00;99376.81;1752221;81;20999;-80
2021/12/20 07:11:31;;;;;;;7.22;6.15;;;;;;;0.77;100.00;99380.09;1738996;81;34273;-81
2021/12/20 07:13:58;;;;;;;6.70;6.00;;;;;;;0.81;100.00;99388.01;1738519;81;21669;-81
2021/12/20 07:16:25;;;;;;;7.42;5.97;;;;;;;0.88;100.00;99390.61;1747842;80;21077;-82
2021/12/20 07:18:52;;;;;;;9.23;6.22;;;;;;;0.93;100.00;99392.92;1755241;80;21135;-81
2021/12/20 07:21:20;;;;;;;10.88;6.35;;;;;;;0.97;100.00;99390.55;1765532;80;21034;-81
2021/12/20 07:23:46;;;;;;;10.35;7.33;;;;;;;1.05;100.00;99398.64;1750456;80;21046;-81
2021/12/20 07:26:14;;;;;;;10.95;6.92;;;;;;;1.14;100.00;99405.46;1782726;80;21074;-80
2021/12/20 07:28:42;;;;;;;9.95;6.80;;;;;;;1.20;100.00;99405.95;1725424;82;21049;-80
2021/12/20 07:31:12;;;;;;;8.95;7.65;;;;;;;1.29;100.00;99406.36;1751639;82;22066;-80
2021/12/20 07:33:42;;;;;;;15.03;9.05;;;;;;;1.34;100.00;99405.20;1751412;80;21010;-81
2021/12/20 07:36:09;;;;;;;22.02;8.78;;;;;;;1.42;100.00;99403.47;1751586;82;21073;-81
2021/12/20 07:38:37;;;;;;;15.85;9.08;;;;;;;1.88;100.00;99414.13;1753263;80;21022;-81
2021/12/20 07:41:04;;;;;;;23.02;9.10;;;;;;;2.31;100.00;99413.33;1749926;80;21121;-82
2021/12/20 07:43:31;;;;;;;10.10;7.65;;;;;;;2.55;100.00;99418.74;1761983;80;21121;-81
2021/12/20 07:45:59;;;;;;;9.28;7.40;;;;;;;2.67;100.00;99419.73;1775887;79;20986;-82
2021/12/20 07:48:41;;;;;;;8.95;7.25;;;;;;;2.70;100.00;99425.95;1743537;80;21081;-81
2021/12/20 07:51:09;;;;;;;18.75;8.53;;;;;;;2.66;100.00;99429.65;1776128;79;21029;-82
2021/12/20 07:53:36;;;;;;;13.40;7.22;;;;;;;2.60;100.00;99422.32;1714118;82;20990;-83
2021/12/20 07:56:04;;;;;;;14.55;7.50;;;;;;;2.62;100.00;99417.89;1776165;79;21954;-82
2021/12/20 07:58:32;;;;;;;11.70;7.58;;;;;;;2.77;100.00;99416.94;1715890;80;21052;-83
2021/12/20 08:01:01;;;;;;;10.63;8.00;;;;;;;2.98;100.00;99423.79;1776307;79;21140;-86
2021/12/20 08:03:29;;;;;;;9.43;7.10;;;;;;;2.92;100.00;99425.47;1745807;80;21076;-86
2021/12/20 08:05:56;;;;;;;9.48;7.67;;;;;;;2.65;100.00;99427.99;1776342;79;21073;-86
2021/12/20 08:08:27;;;;;;;11.03;8.10;;;;;;;2.51;100.00;99432.23;1714342;80;21053;-86
2021/12/20 08:10:57;;;;;;;10.25;8.18;;;;;;;2.56;100.00;99429.39;1776214;79;21641;-87
2021/12/20 08:13:24;;;;;;;9.68;8.70;;;;;;;2.56;100.00;99429.84;1714669;80;21002;-86
2021/12/20 08:15:51;;;;;;;11.15;9.38;;;;;;;2.43;100.00;99434.89;1745654;79;21056;-87
2021/12/20 08:18:21;;;;;;;11.88;8.68;;;;;;;2.34;100.00;99440.94;1739254;80;21042;-80
2021/12/20 08:20:48;;;;;;;9.80;7.40;;;;;;;2.16;100.00;99431.31;1727368;81;21159;-80
2021/12/20 08:23:15;;;;;;;12.10;8.13;;;;;;;2.16;100.00;99431.31;1727762;81;21080;-81
2021/12/20 08:25:43;;;;;;;7.65;6.85;;;;;;;2.09;100.00;99440.30;1727605;81;21112;-80
2021/12/20 08:28:17;;;;;;;12.47;8.20;;;;;;;1.99;100.00;99442.58;1751027;81;21066;-81
2021/12/20 08:31:28;;;;;;;10.28;7.12;;;;;;;1.93;100.00;99440.81;1751189;81;21061;-80
2021/12/20 08:33:55;;;;;;;8.08;7.10;;;;;;;1.92;100.00;99443.85;1751826;80;21105;-80
2021/12/20 08:36:21;;;;;;;8.05;6.53;;;;;;;1.93;100.00;99437.78;1751182;80;21065;-79
2021/12/20 08:38:49;;;;;;;6.70;5.72;;;;;;;1.87;100.00;99441.99;1751034;80;21076;-79
2021/12/20 08:41:17;;;;;;;10.00;6.17;;;;;;;1.77;100.00;99447.28;1727486;81;21073;-79
2021/12/20 08:43:45;;;;;;;8.70;6.90;;;;;;;1.65;100.00;99441.10;1751225;80;21681;-79
2021/12/20 08:46:15;;;;;;;10.23;7.45;;;;;;;1.60;100.00;99441.83;1751232;81;21761;-79
2021/12/20 08:48:43;;;;;;;8.43;6.70;;;;;;;1.57;100.00;99440.27;1747712;81;21030;-80
2021/12/20 08:51:10;;;;;;;8.03;7.00;;;;;;;1.58;100.00;99445.30;1751093;81;21041;-79
2021/12/20 08:53:37;;;;;;;9.78;6.92;;;;;;;1.60;100.00;99446.96;1727462;81;21519;-80
2021/12/20 08:56:22;;;;;;;7.12;5.62;;;;;;;1.60;100.00;99450.38;1751061;81;21077;-80
2021/12/20 08:58:51;;;;;;;7.90;6.30;;;;;;;1.55;100.00;99440.80;1727298;81;21064;-79
2021/12/20 09:01:18;;;;;;;8.10;6.12;;;;;;;1.53;100.00;99439.62;1750876;80;21113;-79
2021/12/20 09:03:45;;;;;;;11.05;6.58;;;;;;;1.58;100.00;99440.17;1750923;81;21112;-80
2021/12/20 09:06:13;;;;;;;8.03;6.50;;;;;;;1.69;100.00;99442.13;1751269;80;21060;-80
2021/12/20 09:08:56;;;;;;;7.90;6.87;;;;;;;1.75;100.00;99440.95;1751248;80;21546;-81
2021/12/20 09:11:25;;;;;;;7.65;6.53;;;;;;;1.79;100.00;99441.16;1751279;81;21151;-80
2021/12/20 09:13:53;;;;;;;9.05;7.20;;;;;;;1.88;100.00;99438.52;1727841;81;21071;-80
2021/12/20 09:16:20;;;;;;;10.38;7.70;;;;;;;1.98;100.00;99447.78;1751213;80;21054;-80
2021/12/20 09:18:48;;;;;;;7.45;6.65;;;;;;;2.01;100.00;99445.05;1727326;81;21647;-79
2021/12/20 09:21:15;;;;;;;10.48;7.22;;;;;;;2.02;100.00;99442.85;1751125;80;21527;-80
2021/12/20 09:23:44;;;;;;;8.95;6.90;;;;;;;2.05;100.00;99443.50;1751330;80;21130;-79
2021/12/20 09:26:11;;;;;;;8.80;6.50;;;;;;;2.08;100.00;99443.77;1751253;81;21144;-80
2021/12/20 09:28:39;;;;;;;8.85;6.40;;;;;;;2.02;100.00;99446.70;1751151;80;21057;-79
2021/12/20 09:31:08;;;;;;;7.70;5.60;;;;;;;1.95;100.00;99439.00;1727257;81;21030;-79
2021/12/20 09:33:35;;;;;;;8.30;5.97;;;;;;;1.97;100.00;99440.99;1751288;80;21073;-80
2021/12/20 09:36:03;;;;;;;6.50;5.20;;;;;;;1.94;100.00;99439.91;1750984;81;21115;-80
2021/12/20 09:38:31;;;;;;;8.45;5.15;;;;;;;1.94;100.00;99442.00;1751081;81;22052;-81
2021/12/20 09:43:44;;;;;;;5.62;4.70;;;;;;;1.93;100.00;99434.40;1751166;81;21582;-79
2021/12/20 09:46:11;;;;;;;5.12;4.30;;;;;;;1.93;100.00;99436.49;1747874;81;21594;-79
2021/12/20 09:48:45;;;;;;;8.00;3.60;;;;;;;1.93;100.00;99435.68;1703389;81;21167;-80
2021/12/20 09:51:12;;;;;;;3.00;2.70;;;;;;;1.88;100.00;99435.48;1747967;81;21081;-80
2021/12/20 09:53:41;;;;;;;4.60;3.12;;;;;;;1.79;100.00;99432.62;1750736;81;21069;-80
2021/12/20 09:56:10;;;;;;;4.35;3.00;;;;;;;1.72;100.00;99431.70;1727110;81;21027;-83
2021/12/20 09:58:40;;;;;;;4.70;2.50;;;;;;;1.70;100.00;99425.81;1727163;81;21018;-80
2021/12/20 10:01:12;;;;;;;6.55;2.72;;;;;;;1.66;100.00;99420.94;1750899;80;21151;-80
2021/12/20 10:03:39;;;;;;;3.70;2.60;;;;;;;1.70;100.00;99430.14;1727382;81;21503;-80
2021/12/20 10:06:06;;;;;;;3.87;2.90;;;;;;;1.81;100.00;99430.80;1750924;80;21586;-80
2021/12/20 10:08:35;;;;;;;5.55;3.50;;;;;;;1.93;100.00;99427.98;1727101;81;21037;-79
2021/12/20 10:11:08;;;;;;;4.63;2.60;;;;;;;2.07;100.00;99433.12;1751087;80;21061;-81
2021/12/20 10:13:38;;;;;;;3.30;2.27;;;;;;;2.19;100.00;99426.00;1747483;81;21159;-80
2021/12/20 10:16:20;;;;;;;3.60;2.52;;;;;;;2.25;100.00;99422.22;1751081;80;21061;-80
2021/12/20 10:18:49;;;;;;;3.52;2.75;;;;;;;2.28;100.00;99416.09;1750556;80;21583;-83
2021/12/20 10:21:18;;;;;;;2.87;2.58;;;;;;;2.29;100.00;99419.84;1727047;81;21872;-82
2021/12/20 10:23:49;;;;;;;2.58;2.22;;;;;;;2.32;100.00;99420.13;1750946;80;21063;-80
2021/12/20 10:26:20;;;;;;;5.10;3.03;;;;;;;2.33;100.00;99421.77;1751129;80;21178;-81
2021/12/20 10:28:52;;;;;;;4.47;3.10;;;;;;;2.27;100.00;99414.44;1750339;80;21379;-80
2021/12/20 10:31:23;;;;;;;3.08;2.50;;;;;;;2.23;100.00;99427.09;1750806;80;21058;-80
2021/12/20 10:33:58;;;;;;;5.65;2.67;;;;;;;2.20;100.00;99420.39;1727022;81;21525;-83
2021/12/20 10:36:26;;;;;;;5.37;2.77;;;;;;;2.14;100.00;99422.05;1750362;80;21618;-80
2021/12/20 10:38:56;;;;;;;6.45;3.20;;;;;;;2.10;100.00;99422.69;1726761;81;21120;-79
2021/12/20 10:41:39;;;;;;;5.65;3.02;;;;;;;2.12;100.00;99426.00;1751108;80;21511;-79
2021/12/20 10:44:00;;;;;;;3.67;2.22;;;;;;;2.11;100.00;99429.48;1726073;81;21132;-79
2021/12/20 10:46:35;;;;;;;4.12;2.50;;;;;;;2.08;100.00;99439.92;1747756;80;21990;-83
2021/12/20 10:49:07;;;;;;;3.75;2.50;;;;;;;2.03;100.00;99440.66;1750784;80;21579;-79
2021/12/20 10:52:18;;;;;;;2.85;2.52;;;;;;;1.99;100.00;99440.02;1749976;80;21110;-80
2021/12/20 10:54:43;;;;;;;3.00;2.80;;;;;;;2.00;100.00;99435.69;1724186;80;21049;-79
2021/12/20 10:57:15;;;;;;;6.30;3.58;;;;;;;2.11;100.00;99442.32;1751088;80;21673;-79
2021/12/20 10:59:44;;;;;;;4.25;3.17;;;;;;;2.17;100.00;99443.68;1741224;80;21053;-80
2021/12/20 11:05:02;;;;;;;5.90;3.33;;;;;;;2.17;100.00;99453.52;1750794;80;21166;-81
2021/12/20 11:10:03;;;;;;;3.98;3.42;;;;;;;2.07;100.00;99458.81;1749312;80;21021;-83
2021/12/20 11:12:34;;;;;;;3.83;2.65;;;;;;;2.01;100.00;99455.32;1719860;81;21043;-80
2021/12/20 11:15:10;;;;;;;2.83;2.33;;;;;;;1.96;100.00;99456.87;1722887;80;21621;-80
2021/12/20 11:17:45;;;;;;;4.25;2.60;;;;;;;1.92;100.00;99459.70;1740903;80;20924;-81
2021/12/20 11:20:19;;;;;;;3.15;2.50;;;;;;;1.88;100.00;99463.72;1752107;80;21129;-81
2021/12/20 11:22:46;;;;;;;2.98;2.37;;;;;;;1.86;100.00;99463.00;1751856;81;21568;-82
2021/12/20 11:25:15;;;;;;;3.77;2.52;;;;;;;1.82;100.00;99470.96;1743722;80;21053;-80
2021/12/20 11:27:51;;;;;;;3.20;2.30;;;;;;;1.77;100.00;99469.09;1713046;81;21061;-81
2021/12/20 11:30:21;;;;;;;3.20;2.50;;;;;;;1.73;100.00;99470.57;1717423;81;21309;-80
2021/12/20 11:32:50;;;;;;;3.62;2.75;;;;;;;1.67;100.00;99472.20;1751972;80;21531;-80
2021/12/20 11:35:21;;;;;;;3.87;2.90;;;;;;;1.66;100.00;99471.83;1752275;81;21038;-80
2021/12/20 11:37:48;;;;;;;;;;;;;;;1.68;100.00;99467.42;1734562;80;21488;-81
2021/12/20 11:40:19;;;;;;;6.20;2.85;;;;;;;1.75;100.00;99470.47;1714743;81;20162;-80
2021/12/20 11:42:46;;;;;;;4.08;3.17;;;;;;;1.83;100.00;99476.00;1707073;82;21291;-80
2021/12/20 11:45:16;;;;;;;4.95;3.00;;;;;;;1.86;100.00;99466.01;1709604;81;21101;-81
2021/12/20 11:48:10;;;;;;;3.62;2.70;;;;;;;1.85;100.00;99466.92;1723831;81;21021;-80
2021/12/20 11:50:42;;;;;;;4.95;3.27;;;;;;;1.87;100.00;99460.80;1752293;81;20991;-81
2021/12/20 11:53:13;;;;;;;4.97;3.50;;;;;;;1.94;100.00;99464.30;1752745;81;20979;-80
2021/12/20 11:55:54;;;;;;;13.20;3.67;;;;;;;1.95;100.00;99464.20;1752492;80;21138;-80
2021/12/20 11:58:27;;;;;;;;;;;;;;;1.93;100.00;99464.73;1755080;80;21053;-83
2021/12/20 12:01:16;;;;;;;9.08;3.67;;;;;;;1.91;100.00;99476.86;1737303;81;20160;-83
2021/12/20 12:03:57;;;;;;;27.00;3.50;;;;;;;1.93;100.00;99480.14;1737182;81;21069;-88
2021/12/20 12:06:29;;;;;;;2.58;2.37;;;;;;;1.93;100.00;99479.33;1752392;81;21049;-84